sensor_id;sensor_type;location;lat;lon;timestamp;P1;durP1;ratioP1;P2;durP2;ratioP2
14611;SDS011;7392;52.078;11.650;2023-07-08T00:01:09;3.03;;;1.30;;
14611;SDS011;7392;52.078;11.650;2023-07-08T00:03:39;1.87;;;1.67;;
14611;SDS011;7392;52.078;11.650;2023-07-08T00:06:09;1.60;;;1.50;;
14611;SDS011;7392;52.078;11.650;2023-07-08T00:08:40;1.57;;;1.47;;
14611;SDS011;7392;52.078;11.650;2023-07-08T00:11:09;1.53;;;1.43;;
14611;SDS011;7392;52.078;11.650;2023-07-08T00:13:38;1.50;;;1.40;;
14611;SDS011;7392;52.078;11.650;2023-07-08T00:16:10;1.50;;;1.40;;
14611;SDS011;7392;52.078;11.650;2023-07-08T00:18:38;1.33;;;1.20;;
14611;SDS011;7392;52.078;11.650;2023-07-08T00:21:08;1.23;;;1.13;;
14611;SDS011;7392;52.078;11.650;2023-07-08T00:23:36;1.57;;;1.47;;
14611;SDS011;7392;52.078;11.650;2023-07-08T00:26:07;1.50;;;1.23;;
14611;SDS011;7392;52.078;11.650;2023-07-08T00:28:38;1.30;;;1.20;;
14611;SDS011;7392;52.078;11.650;2023-07-08T00:31:09;1.40;;;1.30;;
14611;SDS011;7392;52.078;11.650;2023-07-08T00:33:37;1.70;;;1.43;;
14611;SDS011;7392;52.078;11.650;2023-07-08T00:36:08;1.43;;;1.33;;
14611;SDS011;7392;52.078;11.650;2023-07-08T00:38:38;1.40;;;1.30;;
14611;SDS011;7392;52.078;11.650;2023-07-08T00:41:11;1.20;;;1.10;;
14611;SDS011;7392;52.078;11.650;2023-07-08T00:43:43;1.30;;;1.20;;
14611;SDS011;7392;52.078;11.650;2023-07-08T00:46:18;1.60;;;1.40;;
14611;SDS011;7392;52.078;11.650;2023-07-08T00:48:53;1.20;;;1.10;;
14611;SDS011;7392;52.078;11.650;2023-07-08T00:51:25;1.50;;;1.40;;
14611;SDS011;7392;52.078;11.650;2023-07-08T00:53:52;1.40;;;1.30;;
14611;SDS011;7392;52.078;11.650;2023-07-08T00:56:21;1.20;;;1.10;;
14611;SDS011;7392;52.078;11.650;2023-07-08T00:58:54;1.77;;;1.50;;
14611;SDS011;7392;52.078;11.650;2023-07-08T01:01:27;1.80;;;1.47;;
14611;SDS011;7392;52.078;11.650;2023-07-08T01:03:57;1.47;;;1.13;;
14611;SDS011;7392;52.078;11.650;2023-07-08T01:06:29;1.50;;;1.40;;
14611;SDS011;7392;52.078;11.650;2023-07-08T01:09:00;1.40;;;1.30;;
14611;SDS011;7392;52.078;11.650;2023-07-08T01:11:31;1.37;;;1.27;;
14611;SDS011;7392;52.078;11.650;2023-07-08T01:14:01;1.30;;;1.20;;
14611;SDS011;7392;52.078;11.650;2023-07-08T01:16:34;1.40;;;1.30;;
14611;SDS011;7392;52.078;11.650;2023-07-08T01:19:03;1.60;;;1.50;;
14611;SDS011;7392;52.078;11.650;2023-07-08T01:21:34;1.73;;;1.53;;
14611;SDS011;7392;52.078;11.650;2023-07-08T01:24:06;1.50;;;1.40;;
14611;SDS011;7392;52.078;11.650;2023-07-08T01:26:37;1.30;;;1.13;;
14611;SDS011;7392;52.078;11.650;2023-07-08T01:29:12;1.57;;;1.47;;
14611;SDS011;7392;52.078;11.650;2023-07-08T01:31:40;1.83;;;1.63;;
14611;SDS011;7392;52.078;11.650;2023-07-08T01:34:15;1.77;;;1.67;;
14611;SDS011;7392;52.078;11.650;2023-07-08T01:36:44;1.60;;;1.50;;
14611;SDS011;7392;52.078;11.650;2023-07-08T01:39:17;1.83;;;1.73;;
14611;SDS011;7392;52.078;11.650;2023-07-08T01:41:46;1.67;;;1.57;;
14611;SDS011;7392;52.078;11.650;2023-07-08T01:44:21;1.80;;;1.70;;
14611;SDS011;7392;52.078;11.650;2023-07-08T01:46:56;1.60;;;1.50;;
14611;SDS011;7392;52.078;11.650;2023-07-08T01:49:27;1.70;;;1.60;;
14611;SDS011;7392;52.078;11.650;2023-07-08T01:51:55;1.70;;;1.60;;
14611;SDS011;7392;52.078;11.650;2023-07-08T01:54:26;1.80;;;1.70;;
14611;SDS011;7392;52.078;11.650;2023-07-08T01:56:55;1.70;;;1.60;;
14611;SDS011;7392;52.078;11.650;2023-07-08T01:59:25;1.60;;;1.50;;
14611;SDS011;7392;52.078;11.650;2023-07-08T02:01:52;1.60;;;1.50;;
14611;SDS011;7392;52.078;11.650;2023-07-08T02:04:22;1.70;;;1.60;;
14611;SDS011;7392;52.078;11.650;2023-07-08T02:06:51;1.70;;;1.60;;
14611;SDS011;7392;52.078;11.650;2023-07-08T02:09:20;1.93;;;1.83;;
14611;SDS011;7392;52.078;11.650;2023-07-08T02:11:50;1.63;;;1.53;;
14611;SDS011;7392;52.078;11.650;2023-07-08T02:14:18;1.60;;;1.50;;
14611;SDS011;7392;52.078;11.650;2023-07-08T02:16:46;1.90;;;1.53;;
14611;SDS011;7392;52.078;11.650;2023-07-08T02:19:14;2.03;;;1.83;;
14611;SDS011;7392;52.078;11.650;2023-07-08T02:21:42;1.83;;;1.70;;
14611;SDS011;7392;52.078;11.650;2023-07-08T02:24:10;1.53;;;1.43;;
14611;SDS011;7392;52.078;11.650;2023-07-08T02:26:38;1.83;;;1.47;;
14611;SDS011;7392;52.078;11.650;2023-07-08T02:29:07;1.60;;;1.50;;
14611;SDS011;7392;52.078;11.650;2023-07-08T02:31:35;2.03;;;1.83;;
14611;SDS011;7392;52.078;11.650;2023-07-08T02:34:03;1.70;;;1.60;;
14611;SDS011;7392;52.078;11.650;2023-07-08T02:36:32;1.60;;;1.50;;
14611;SDS011;7392;52.078;11.650;2023-07-08T02:39:01;1.80;;;1.70;;
14611;SDS011;7392;52.078;11.650;2023-07-08T02:41:29;1.97;;;1.87;;
14611;SDS011;7392;52.078;11.650;2023-07-08T02:43:56;1.60;;;1.50;;
14611;SDS011;7392;52.078;11.650;2023-07-08T02:46:25;2.20;;;1.50;;
14611;SDS011;7392;52.078;11.650;2023-07-08T02:48:53;1.60;;;1.50;;
14611;SDS011;7392;52.078;11.650;2023-07-08T02:51:21;1.47;;;1.37;;
14611;SDS011;7392;52.078;11.650;2023-07-08T02:53:49;1.80;;;1.70;;
14611;SDS011;7392;52.078;11.650;2023-07-08T02:56:17;1.80;;;1.70;;
14611;SDS011;7392;52.078;11.650;2023-07-08T02:58:45;2.00;;;1.80;;
14611;SDS011;7392;52.078;11.650;2023-07-08T03:01:12;1.80;;;1.70;;
14611;SDS011;7392;52.078;11.650;2023-07-08T03:03:45;1.70;;;1.60;;
14611;SDS011;7392;52.078;11.650;2023-07-08T03:06:14;1.80;;;1.70;;
14611;SDS011;7392;52.078;11.650;2023-07-08T03:08:42;1.70;;;1.60;;
14611;SDS011;7392;52.078;11.650;2023-07-08T03:11:09;1.80;;;1.70;;
14611;SDS011;7392;52.078;11.650;2023-07-08T03:13:38;1.80;;;1.70;;
14611;SDS011;7392;52.078;11.650;2023-07-08T03:16:06;1.70;;;1.60;;
14611;SDS011;7392;52.078;11.650;2023-07-08T03:18:39;1.73;;;1.63;;
14611;SDS011;7392;52.078;11.650;2023-07-08T03:21:15;1.57;;;1.47;;
14611;SDS011;7392;52.078;11.650;2023-07-08T03:23:45;1.80;;;1.70;;
14611;SDS011;7392;52.078;11.650;2023-07-08T03:26:15;1.63;;;1.53;;
14611;SDS011;7392;52.078;11.650;2023-07-08T03:28:45;1.47;;;1.37;;
14611;SDS011;7392;52.078;11.650;2023-07-08T03:31:14;1.70;;;1.60;;
14611;SDS011;7392;52.078;11.650;2023-07-08T03:33:43;1.50;;;1.40;;
14611;SDS011;7392;52.078;11.650;2023-07-08T03:36:12;2.03;;;1.60;;
14611;SDS011;7392;52.078;11.650;2023-07-08T03:38:50;1.60;;;1.50;;
14611;SDS011;7392;52.078;11.650;2023-07-08T03:41:19;1.50;;;1.40;;
14611;SDS011;7392;52.078;11.650;2023-07-08T03:43:48;1.50;;;1.40;;
14611;SDS011;7392;52.078;11.650;2023-07-08T03:46:17;1.47;;;1.37;;
14611;SDS011;7392;52.078;11.650;2023-07-08T03:48:46;1.33;;;1.23;;
14611;SDS011;7392;52.078;11.650;2023-07-08T03:51:17;1.70;;;1.60;;
14611;SDS011;7392;52.078;11.650;2023-07-08T03:53:50;1.63;;;1.53;;
14611;SDS011;7392;52.078;11.650;2023-07-08T03:56:20;1.50;;;1.40;;
14611;SDS011;7392;52.078;11.650;2023-07-08T03:58:48;1.50;;;1.40;;
14611;SDS011;7392;52.078;11.650;2023-07-08T04:01:16;1.50;;;1.40;;
14611;SDS011;7392;52.078;11.650;2023-07-08T04:03:45;1.90;;;1.80;;
14611;SDS011;7392;52.078;11.650;2023-07-08T04:06:13;2.00;;;1.80;;
14611;SDS011;7392;52.078;11.650;2023-07-08T04:08:41;1.70;;;1.60;;
14611;SDS011;7392;52.078;11.650;2023-07-08T04:11:11;1.80;;;1.70;;
14611;SDS011;7392;52.078;11.650;2023-07-08T04:13:39;1.77;;;1.60;;
14611;SDS011;7392;52.078;11.650;2023-07-08T04:16:07;1.90;;;1.77;;
14611;SDS011;7392;52.078;11.650;2023-07-08T04:18:45;1.90;;;1.80;;
14611;SDS011;7392;52.078;11.650;2023-07-08T04:21:13;1.90;;;1.80;;
14611;SDS011;7392;52.078;11.650;2023-07-08T04:23:44;1.77;;;1.67;;
14611;SDS011;7392;52.078;11.650;2023-07-08T04:26:13;1.90;;;1.80;;
14611;SDS011;7392;52.078;11.650;2023-07-08T04:28:41;1.90;;;1.70;;
14611;SDS011;7392;52.078;11.650;2023-07-08T04:31:09;1.97;;;1.70;;
14611;SDS011;7392;52.078;11.650;2023-07-08T04:33:37;1.60;;;1.50;;
14611;SDS011;7392;52.078;11.650;2023-07-08T04:36:05;2.30;;;1.60;;
14611;SDS011;7392;52.078;11.650;2023-07-08T04:38:39;1.70;;;1.60;;
14611;SDS011;7392;52.078;11.650;2023-07-08T04:41:08;1.60;;;1.50;;
14611;SDS011;7392;52.078;11.650;2023-07-08T04:43:37;1.47;;;1.37;;
14611;SDS011;7392;52.078;11.650;2023-07-08T04:46:05;1.50;;;1.40;;
14611;SDS011;7392;52.078;11.650;2023-07-08T04:48:43;1.40;;;1.30;;
14611;SDS011;7392;52.078;11.650;2023-07-08T04:51:12;1.50;;;1.40;;
14611;SDS011;7392;52.078;11.650;2023-07-08T04:53:40;1.33;;;1.23;;
14611;SDS011;7392;52.078;11.650;2023-07-08T04:56:07;1.30;;;1.20;;
14611;SDS011;7392;52.078;11.650;2023-07-08T04:58:37;1.33;;;1.20;;
14611;SDS011;7392;52.078;11.650;2023-07-08T05:01:04;1.57;;;1.47;;
14611;SDS011;7392;52.078;11.650;2023-07-08T05:03:32;1.50;;;1.40;;
14611;SDS011;7392;52.078;11.650;2023-07-08T05:06:00;1.43;;;1.33;;
14611;SDS011;7392;52.078;11.650;2023-07-08T05:08:27;1.37;;;1.20;;
14611;SDS011;7392;52.078;11.650;2023-07-08T05:10:55;1.60;;;1.50;;
14611;SDS011;7392;52.078;11.650;2023-07-08T05:13:24;1.50;;;1.40;;
14611;SDS011;7392;52.078;11.650;2023-07-08T05:15:53;1.57;;;1.43;;
14611;SDS011;7392;52.078;11.650;2023-07-08T05:18:21;1.47;;;1.37;;
14611;SDS011;7392;52.078;11.650;2023-07-08T05:20:52;2.00;;;1.53;;
14611;SDS011;7392;52.078;11.650;2023-07-08T05:23:21;1.70;;;1.60;;
14611;SDS011;7392;52.078;11.650;2023-07-08T05:25:49;1.90;;;1.70;;
14611;SDS011;7392;52.078;11.650;2023-07-08T05:28:17;1.90;;;1.80;;
14611;SDS011;7392;52.078;11.650;2023-07-08T05:30:45;1.90;;;1.80;;
14611;SDS011;7392;52.078;11.650;2023-07-08T05:33:15;1.87;;;1.77;;
14611;SDS011;7392;52.078;11.650;2023-07-08T05:35:44;2.03;;;1.83;;
14611;SDS011;7392;52.078;11.650;2023-07-08T05:38:12;1.70;;;1.60;;
14611;SDS011;7392;52.078;11.650;2023-07-08T05:40:40;1.60;;;1.50;;
14611;SDS011;7392;52.078;11.650;2023-07-08T05:43:08;1.87;;;1.70;;
14611;SDS011;7392;52.078;11.650;2023-07-08T05:45:37;1.90;;;1.80;;
14611;SDS011;7392;52.078;11.650;2023-07-08T05:48:05;2.00;;;1.90;;
14611;SDS011;7392;52.078;11.650;2023-07-08T05:50:34;1.80;;;1.70;;
14611;SDS011;7392;52.078;11.650;2023-07-08T05:53:02;2.20;;;1.80;;
14611;SDS011;7392;52.078;11.650;2023-07-08T05:55:30;1.80;;;1.70;;
14611;SDS011;7392;52.078;11.650;2023-07-08T05:57:58;1.87;;;1.73;;
14611;SDS011;7392;52.078;11.650;2023-07-08T06:00:28;2.20;;;1.97;;
14611;SDS011;7392;52.078;11.650;2023-07-08T06:03:04;2.20;;;2.00;;
14611;SDS011;7392;52.078;11.650;2023-07-08T06:05:32;2.33;;;1.80;;
14611;SDS011;7392;52.078;11.650;2023-07-08T06:08:01;2.20;;;2.00;;
14611;SDS011;7392;52.078;11.650;2023-07-08T06:10:29;2.50;;;2.30;;
14611;SDS011;7392;52.078;11.650;2023-07-08T06:12:57;2.27;;;2.07;;
14611;SDS011;7392;52.078;11.650;2023-07-08T06:15:24;2.17;;;2.00;;
14611;SDS011;7392;52.078;11.650;2023-07-08T06:17:52;2.17;;;1.97;;
14611;SDS011;7392;52.078;11.650;2023-07-08T06:20:20;2.07;;;1.87;;
14611;SDS011;7392;52.078;11.650;2023-07-08T06:22:47;2.10;;;1.90;;
14611;SDS011;7392;52.078;11.650;2023-07-08T06:25:20;2.43;;;2.10;;
14611;SDS011;7392;52.078;11.650;2023-07-08T06:27:48;2.43;;;2.10;;
14611;SDS011;7392;52.078;11.650;2023-07-08T06:30:19;2.63;;;2.43;;
14611;SDS011;7392;52.078;11.650;2023-07-08T06:32:47;2.50;;;2.30;;
14611;SDS011;7392;52.078;11.650;2023-07-08T06:35:15;2.57;;;2.37;;
14611;SDS011;7392;52.078;11.650;2023-07-08T06:37:42;2.73;;;2.53;;
14611;SDS011;7392;52.078;11.650;2023-07-08T06:40:11;2.47;;;2.27;;
14611;SDS011;7392;52.078;11.650;2023-07-08T06:42:40;2.40;;;2.20;;
14611;SDS011;7392;52.078;11.650;2023-07-08T06:45:18;3.60;;;2.30;;
14611;SDS011;7392;52.078;11.650;2023-07-08T06:47:46;2.40;;;2.20;;
14611;SDS011;7392;52.078;11.650;2023-07-08T06:50:14;2.53;;;2.33;;
14611;SDS011;7392;52.078;11.650;2023-07-08T06:52:41;2.50;;;2.30;;
14611;SDS011;7392;52.078;11.650;2023-07-08T06:55:10;2.17;;;2.07;;
14611;SDS011;7392;52.078;11.650;2023-07-08T06:57:38;2.63;;;2.43;;
14611;SDS011;7392;52.078;11.650;2023-07-08T07:00:09;2.77;;;2.57;;
14611;SDS011;7392;52.078;11.650;2023-07-08T07:02:39;2.73;;;2.53;;
14611;SDS011;7392;52.078;11.650;2023-07-08T07:05:07;2.77;;;2.57;;
14611;SDS011;7392;52.078;11.650;2023-07-08T07:07:35;2.80;;;2.60;;
14611;SDS011;7392;52.078;11.650;2023-07-08T07:10:03;3.60;;;3.17;;
14611;SDS011;7392;52.078;11.650;2023-07-08T07:12:32;3.50;;;3.20;;
14611;SDS011;7392;52.078;11.650;2023-07-08T07:15:00;2.93;;;2.73;;
14611;SDS011;7392;52.078;11.650;2023-07-08T07:17:29;2.93;;;2.73;;
14611;SDS011;7392;52.078;11.650;2023-07-08T07:19:57;4.17;;;3.00;;
14611;SDS011;7392;52.078;11.650;2023-07-08T07:22:25;2.77;;;2.57;;
14611;SDS011;7392;52.078;11.650;2023-07-08T07:24:53;3.10;;;2.80;;
14611;SDS011;7392;52.078;11.650;2023-07-08T07:27:21;3.73;;;3.43;;
14611;SDS011;7392;52.078;11.650;2023-07-08T07:29:49;3.07;;;2.83;;
14611;SDS011;7392;52.078;11.650;2023-07-08T07:32:18;3.43;;;3.13;;
14611;SDS011;7392;52.078;11.650;2023-07-08T07:34:51;3.40;;;3.10;;
14611;SDS011;7392;52.078;11.650;2023-07-08T07:37:20;3.20;;;2.90;;
14611;SDS011;7392;52.078;11.650;2023-07-08T07:39:48;3.43;;;3.17;;
14611;SDS011;7392;52.078;11.650;2023-07-08T07:42:17;3.33;;;3.03;;
14611;SDS011;7392;52.078;11.650;2023-07-08T07:44:46;3.13;;;2.83;;
14611;SDS011;7392;52.078;11.650;2023-07-08T07:47:14;3.10;;;2.90;;
14611;SDS011;7392;52.078;11.650;2023-07-08T07:49:42;3.80;;;2.80;;
14611;SDS011;7392;52.078;11.650;2023-07-08T07:52:11;3.00;;;2.80;;
14611;SDS011;7392;52.078;11.650;2023-07-08T07:54:39;3.07;;;2.77;;
14611;SDS011;7392;52.078;11.650;2023-07-08T07:57:07;3.75;;;3.30;;
14611;SDS011;7392;52.078;11.650;2023-07-08T07:59:36;3.28;;;3.00;;
14611;SDS011;7392;52.078;11.650;2023-07-08T08:02:05;2.50;;;2.30;;
14611;SDS011;7392;52.078;11.650;2023-07-08T08:04:33;3.22;;;2.92;;
14611;SDS011;7392;52.078;11.650;2023-07-08T08:07:01;3.20;;;2.90;;
14611;SDS011;7392;52.078;11.650;2023-07-08T08:09:30;3.60;;;3.30;;
14611;SDS011;7392;52.078;11.650;2023-07-08T08:11:58;3.05;;;2.85;;
14611;SDS011;7392;52.078;11.650;2023-07-08T08:14:25;3.72;;;3.38;;
14611;SDS011;7392;52.078;11.650;2023-07-08T08:16:53;3.60;;;3.30;;
14611;SDS011;7392;52.078;11.650;2023-07-08T08:19:21;3.35;;;3.08;;
14611;SDS011;7392;52.078;11.650;2023-07-08T08:21:49;3.20;;;2.90;;
14611;SDS011;7392;52.078;11.650;2023-07-08T08:24:17;3.03;;;2.72;;
14611;SDS011;7392;52.078;11.650;2023-07-08T08:26:46;3.25;;;2.75;;
14611;SDS011;7392;52.078;11.650;2023-07-08T08:29:14;3.33;;;3.03;;
14611;SDS011;7392;52.078;11.650;2023-07-08T08:31:41;3.13;;;2.83;;
14611;SDS011;7392;52.078;11.650;2023-07-08T08:34:09;3.22;;;2.92;;
14611;SDS011;7392;52.078;11.650;2023-07-08T08:36:37;3.10;;;2.80;;
14611;SDS011;7392;52.078;11.650;2023-07-08T08:39:04;3.45;;;3.10;;
14611;SDS011;7392;52.078;11.650;2023-07-08T08:41:33;3.80;;;3.40;;
14611;SDS011;7392;52.078;11.650;2023-07-08T08:44:03;3.88;;;3.28;;
14611;SDS011;7392;52.078;11.650;2023-07-08T08:46:36;3.30;;;3.00;;
14611;SDS011;7392;52.078;11.650;2023-07-08T08:49:13;4.20;;;3.05;;
14611;SDS011;7392;52.078;11.650;2023-07-08T08:51:50;2.95;;;2.75;;
14611;SDS011;7392;52.078;11.650;2023-07-08T08:54:18;3.10;;;2.90;;
14611;SDS011;7392;52.078;11.650;2023-07-08T08:56:48;3.33;;;3.05;;
14611;SDS011;7392;52.078;11.650;2023-07-08T08:59:32;3.20;;;2.90;;
14611;SDS011;7392;52.078;11.650;2023-07-08T09:02:09;3.58;;;3.17;;
14611;SDS011;7392;52.078;11.650;2023-07-08T09:04:56;4.65;;;3.15;;
14611;SDS011;7392;52.078;11.650;2023-07-08T09:07:28;3.85;;;2.90;;
14611;SDS011;7392;52.078;11.650;2023-07-08T09:10:02;4.15;;;3.55;;
14611;SDS011;7392;52.078;11.650;2023-07-08T09:12:35;3.72;;;3.42;;
14611;SDS011;7392;52.078;11.650;2023-07-08T09:15:09;3.70;;;3.40;;
14611;SDS011;7392;52.078;11.650;2023-07-08T09:17:39;3.60;;;3.30;;
14611;SDS011;7392;52.078;11.650;2023-07-08T09:20:12;3.22;;;2.92;;
14611;SDS011;7392;52.078;11.650;2023-07-08T09:22:50;3.75;;;2.70;;
14611;SDS011;7392;52.078;11.650;2023-07-08T09:25:28;4.13;;;3.35;;
14611;SDS011;7392;52.078;11.650;2023-07-08T09:27:59;3.33;;;3.00;;
14611;SDS011;7392;52.078;11.650;2023-07-08T09:30:31;3.05;;;2.78;;
14611;SDS011;7392;52.078;11.650;2023-07-08T09:33:06;4.60;;;3.47;;
14611;SDS011;7392;52.078;11.650;2023-07-08T09:35:40;3.40;;;3.05;;
14611;SDS011;7392;52.078;11.650;2023-07-08T09:38:13;3.35;;;3.08;;
14611;SDS011;7392;52.078;11.650;2023-07-08T09:40:49;3.35;;;3.05;;
14611;SDS011;7392;52.078;11.650;2023-07-08T09:43:23;3.38;;;2.97;;
14611;SDS011;7392;52.078;11.650;2023-07-08T09:45:55;3.00;;;2.80;;
14611;SDS011;7392;52.078;11.650;2023-07-08T09:48:26;3.50;;;3.20;;
14611;SDS011;7392;52.078;11.650;2023-07-08T09:50:56;4.68;;;3.20;;
14611;SDS011;7392;52.078;11.650;2023-07-08T09:53:28;4.15;;;3.22;;
14611;SDS011;7392;52.078;11.650;2023-07-08T09:56:01;3.05;;;2.83;;
14611;SDS011;7392;52.078;11.650;2023-07-08T09:58:32;3.00;;;2.80;;
14611;SDS011;7392;52.078;11.650;2023-07-08T10:01:17;2.97;;;2.78;;
14611;SDS011;7392;52.078;11.650;2023-07-08T10:03:48;3.67;;;2.90;;
14611;SDS011;7392;52.078;11.650;2023-07-08T10:06:16;3.22;;;2.92;;
14611;SDS011;7392;52.078;11.650;2023-07-08T10:08:50;3.67;;;3.30;;
14611;SDS011;7392;52.078;11.650;2023-07-08T10:11:25;4.78;;;3.55;;
14611;SDS011;7392;52.078;11.650;2023-07-08T10:13:56;3.17;;;2.88;;
14611;SDS011;7392;52.078;11.650;2023-07-08T10:16:40;3.10;;;2.83;;
14611;SDS011;7392;52.078;11.650;2023-07-08T10:19:09;3.67;;;3.00;;
14611;SDS011;7392;52.078;11.650;2023-07-08T10:21:43;3.03;;;2.72;;
14611;SDS011;7392;52.078;11.650;2023-07-08T10:24:22;3.90;;;3.40;;
14611;SDS011;7392;52.078;11.650;2023-07-08T10:27:05;3.47;;;2.97;;
14611;SDS011;7392;52.078;11.650;2023-07-08T10:29:44;3.40;;;2.95;;
14611;SDS011;7392;52.078;11.650;2023-07-08T10:32:28;3.25;;;2.95;;
14611;SDS011;7392;52.078;11.650;2023-07-08T10:35:08;2.88;;;2.67;;
14611;SDS011;7392;52.078;11.650;2023-07-08T10:37:48;3.65;;;3.00;;
14611;SDS011;7392;52.078;11.650;2023-07-08T10:40:39;3.22;;;2.92;;
14611;SDS011;7392;52.078;11.650;2023-07-08T10:43:21;2.80;;;2.60;;
14611;SDS011;7392;52.078;11.650;2023-07-08T10:46:07;3.20;;;2.90;;
14611;SDS011;7392;52.078;11.650;2023-07-08T10:48:59;3.30;;;3.00;;
14611;SDS011;7392;52.078;11.650;2023-07-08T10:51:38;3.58;;;3.25;;
14611;SDS011;7392;52.078;11.650;2023-07-08T10:57:12;3.58;;;2.90;;
14611;SDS011;7392;52.078;11.650;2023-07-08T10:59:54;3.20;;;2.90;;
14611;SDS011;7392;52.078;11.650;2023-07-08T11:02:46;5.15;;;2.72;;
14611;SDS011;7392;52.078;11.650;2023-07-08T11:05:30;3.45;;;3.15;;
14611;SDS011;7392;52.078;11.650;2023-07-08T11:08:04;2.97;;;2.67;;
14611;SDS011;7392;52.078;11.650;2023-07-08T11:10:46;3.50;;;3.20;;
14611;SDS011;7392;52.078;11.650;2023-07-08T11:13:36;3.17;;;2.40;;
14611;SDS011;7392;52.078;11.650;2023-07-08T11:16:15;2.90;;;2.60;;
14611;SDS011;7392;52.078;11.650;2023-07-08T11:18:50;3.30;;;3.00;;
14611;SDS011;7392;52.078;11.650;2023-07-08T11:21:30;3.10;;;2.80;;
14611;SDS011;7392;52.078;11.650;2023-07-08T11:24:05;3.65;;;3.00;;
14611;SDS011;7392;52.078;11.650;2023-07-08T11:26:42;3.22;;;2.92;;
14611;SDS011;7392;52.078;11.650;2023-07-08T11:29:17;3.25;;;2.95;;
14611;SDS011;7392;52.078;11.650;2023-07-08T11:31:47;3.33;;;3.00;;
14611;SDS011;7392;52.078;11.650;2023-07-08T11:34:17;3.67;;;3.38;;
14611;SDS011;7392;52.078;11.650;2023-07-08T11:36:48;3.95;;;3.65;;
14611;SDS011;7392;52.078;11.650;2023-07-08T11:39:31;4.40;;;4.00;;
14611;SDS011;7392;52.078;11.650;2023-07-08T11:42:04;5.10;;;3.85;;
14611;SDS011;7392;52.078;11.650;2023-07-08T11:44:41;3.50;;;3.20;;
14611;SDS011;7392;52.078;11.650;2023-07-08T11:47:12;4.63;;;3.47;;
14611;SDS011;7392;52.078;11.650;2023-07-08T11:49:44;3.70;;;3.40;;
14611;SDS011;7392;52.078;11.650;2023-07-08T11:52:16;4.40;;;3.40;;
14611;SDS011;7392;52.078;11.650;2023-07-08T11:54:48;3.30;;;3.00;;
14611;SDS011;7392;52.078;11.650;2023-07-08T11:57:25;3.08;;;2.88;;
14611;SDS011;7392;52.078;11.650;2023-07-08T12:00:13;2.83;;;2.53;;
14611;SDS011;7392;52.078;11.650;2023-07-08T12:02:48;3.30;;;3.00;;
14611;SDS011;7392;52.078;11.650;2023-07-08T12:05:18;2.78;;;2.58;;
14611;SDS011;7392;52.078;11.650;2023-07-08T12:07:59;2.75;;;2.55;;
14611;SDS011;7392;52.078;11.650;2023-07-08T12:10:33;2.97;;;2.67;;
14611;SDS011;7392;52.078;11.650;2023-07-08T12:13:02;3.72;;;2.60;;
14611;SDS011;7392;52.078;11.650;2023-07-08T12:15:31;2.63;;;2.42;;
14611;SDS011;7392;52.078;11.650;2023-07-08T12:18:01;2.40;;;2.20;;
14611;SDS011;7392;52.078;11.650;2023-07-08T12:20:38;2.28;;;2.08;;
14611;SDS011;7392;52.078;11.650;2023-07-08T12:23:10;2.22;;;2.03;;
14611;SDS011;7392;52.078;11.650;2023-07-08T12:25:39;1.98;;;1.88;;
14611;SDS011;7392;52.078;11.650;2023-07-08T12:28:08;1.95;;;1.75;;
14611;SDS011;7392;52.078;11.650;2023-07-08T12:30:39;2.45;;;2.25;;
14611;SDS011;7392;52.078;11.650;2023-07-08T12:33:10;2.67;;;2.47;;
14611;SDS011;7392;52.078;11.650;2023-07-08T12:35:50;2.67;;;2.47;;
14611;SDS011;7392;52.078;11.650;2023-07-08T12:38:24;2.95;;;2.70;;
14611;SDS011;7392;52.078;11.650;2023-07-08T12:40:55;2.70;;;2.50;;
14611;SDS011;7392;52.078;11.650;2023-07-08T12:43:24;2.35;;;2.15;;
14611;SDS011;7392;52.078;11.650;2023-07-08T12:45:52;2.20;;;2.00;;
14611;SDS011;7392;52.078;11.650;2023-07-08T12:48:20;2.53;;;2.33;;
14611;SDS011;7392;52.078;11.650;2023-07-08T12:50:48;2.58;;;2.38;;
14611;SDS011;7392;52.078;11.650;2023-07-08T12:53:16;2.67;;;2.47;;
14611;SDS011;7392;52.078;11.650;2023-07-08T12:55:45;2.53;;;2.33;;
14611;SDS011;7392;52.078;11.650;2023-07-08T12:58:17;2.47;;;2.08;;
14611;SDS011;7392;52.078;11.650;2023-07-08T13:00:52;1.80;;;1.70;;
14611;SDS011;7392;52.078;11.650;2023-07-08T13:03:26;2.35;;;2.15;;
14611;SDS011;7392;52.078;11.650;2023-07-08T13:05:57;2.53;;;2.33;;
14611;SDS011;7392;52.078;11.650;2023-07-08T13:08:27;2.55;;;2.20;;
14611;SDS011;7392;52.078;11.650;2023-07-08T13:10:59;2.75;;;2.20;;
14611;SDS011;7392;52.078;11.650;2023-07-08T13:13:30;2.45;;;2.25;;
14611;SDS011;7392;52.078;11.650;2023-07-08T13:16:01;2.00;;;1.90;;
14611;SDS011;7392;52.078;11.650;2023-07-08T13:18:30;1.80;;;1.70;;
14611;SDS011;7392;52.078;11.650;2023-07-08T13:21:01;2.50;;;2.30;;
14611;SDS011;7392;52.078;11.650;2023-07-08T13:23:30;2.17;;;1.98;;
14611;SDS011;7392;52.078;11.650;2023-07-08T13:26:00;1.90;;;1.80;;
14611;SDS011;7392;52.078;11.650;2023-07-08T13:28:29;2.42;;;2.22;;
14611;SDS011;7392;52.078;11.650;2023-07-08T13:31:13;2.40;;;2.20;;
14611;SDS011;7392;52.078;11.650;2023-07-08T13:33:46;2.40;;;2.20;;
14611;SDS011;7392;52.078;11.650;2023-07-08T13:36:16;1.90;;;1.80;;
14611;SDS011;7392;52.078;11.650;2023-07-08T13:38:47;2.75;;;1.90;;
14611;SDS011;7392;52.078;11.650;2023-07-08T13:41:19;2.20;;;2.00;;
14611;SDS011;7392;52.078;11.650;2023-07-08T13:43:49;2.22;;;2.03;;
14611;SDS011;7392;52.078;11.650;2023-07-08T13:49:09;1.65;;;1.55;;
14611;SDS011;7392;52.078;11.650;2023-07-08T13:51:43;1.80;;;1.70;;
14611;SDS011;7392;52.078;11.650;2023-07-08T13:54:13;1.70;;;1.60;;
14611;SDS011;7392;52.078;11.650;2023-07-08T13:56:44;1.88;;;1.70;;
14611;SDS011;7392;52.078;11.650;2023-07-08T13:59:15;1.73;;;1.63;;
14611;SDS011;7392;52.078;11.650;2023-07-08T14:01:45;1.80;;;1.70;;
14611;SDS011;7392;52.078;11.650;2023-07-08T14:04:13;1.70;;;1.60;;
14611;SDS011;7392;52.078;11.650;2023-07-08T14:06:43;1.40;;;1.30;;
14611;SDS011;7392;52.078;11.650;2023-07-08T14:09:12;1.65;;;1.55;;
14611;SDS011;7392;52.078;11.650;2023-07-08T14:11:47;1.35;;;1.25;;
14611;SDS011;7392;52.078;11.650;2023-07-08T14:14:16;1.70;;;1.60;;
14611;SDS011;7392;52.078;11.650;2023-07-08T14:16:44;1.55;;;1.45;;
14611;SDS011;7392;52.078;11.650;2023-07-08T14:19:15;1.70;;;1.60;;
14611;SDS011;7392;52.078;11.650;2023-07-08T14:21:44;1.50;;;1.40;;
14611;SDS011;7392;52.078;11.650;2023-07-08T14:24:13;1.75;;;1.65;;
14611;SDS011;7392;52.078;11.650;2023-07-08T14:26:42;1.83;;;1.70;;
14611;SDS011;7392;52.078;11.650;2023-07-08T14:29:12;2.00;;;1.80;;
14611;SDS011;7392;52.078;11.650;2023-07-08T14:31:40;1.90;;;1.80;;
14611;SDS011;7392;52.078;11.650;2023-07-08T14:34:12;2.03;;;1.90;;
14611;SDS011;7392;52.078;11.650;2023-07-08T14:36:48;2.42;;;2.22;;
14611;SDS011;7392;52.078;11.650;2023-07-08T14:39:16;2.45;;;2.25;;
14611;SDS011;7392;52.078;11.650;2023-07-08T14:41:46;2.33;;;2.13;;
14611;SDS011;7392;52.078;11.650;2023-07-08T14:44:21;2.17;;;1.98;;
14611;SDS011;7392;52.078;11.650;2023-07-08T14:46:51;1.92;;;1.83;;
14611;SDS011;7392;52.078;11.650;2023-07-08T14:49:22;1.80;;;1.70;;
14611;SDS011;7392;52.078;11.650;2023-07-08T14:51:50;2.03;;;1.83;;
14611;SDS011;7392;52.078;11.650;2023-07-08T14:54:18;2.20;;;2.00;;
14611;SDS011;7392;52.078;11.650;2023-07-08T14:56:47;2.30;;;2.10;;
14611;SDS011;7392;52.078;11.650;2023-07-08T14:59:17;1.95;;;1.85;;
14611;SDS011;7392;52.078;11.650;2023-07-08T15:01:49;2.30;;;2.10;;
14611;SDS011;7392;52.078;11.650;2023-07-08T15:04:18;2.10;;;2.00;;
14611;SDS011;7392;52.078;11.650;2023-07-08T15:06:47;1.85;;;1.75;;
14611;SDS011;7392;52.078;11.650;2023-07-08T15:09:15;2.30;;;2.10;;
14611;SDS011;7392;52.078;11.650;2023-07-08T15:11:44;3.22;;;2.92;;
14611;SDS011;7392;52.078;11.650;2023-07-08T15:14:16;2.90;;;2.50;;
14611;SDS011;7392;52.078;11.650;2023-07-08T15:16:45;2.47;;;2.28;;